Lady Washington — WAA2820 — position and weather

sailwx.info

Track history (hours):
 
Tides and Currents Weather Stations Pressure Air Temp Water Temp Dewpoint Dewpoint Depression Visibility Wind Speed Wind Dir Waves Ship Positions

Lady Washington (United States)

Ship's website: http://www.historicalseaport.org/LadyWashington.htm

Owner: GRAYS HARBOR HISTORICAL SEAPORT AUTHORIT, ABERDEEN, WA. More information available from US FCC via Universal Licensing System and Coast Guard Vessel Documentation Center.

Last reported at 2019-Aug-21 20:39 UTC. Time now 2019-Aug-22 08:55 UTC.
Position N 47°22' W 122°25'.

Length 34 m.

Type: Sailing vessel. MMSI: 366945360.

Date/timePositionNaut miles runAvg speedWind from/ knotsBaromVisibWave heightAir tempDewpointWater temp
2019-Aug-21 20:39N 47°22' W 122°25'1 5.4
2019-Aug-21 20:24N 47°22' W 122°24'5 5.0
2019-Aug-21 19:29N 47°27' W 122°25'3 5.4
2019-Aug-21 18:59N 47°29' W 122°26'3 5.2
2019-Aug-21 18:29N 47°32' W 122°27'5 5.9
2019-Aug-21 17:43N 47°35' W 122°32'  
2019-Aug-15 00:47N 47°34' W 122°31'5 4.0
2019-Aug-14 23:28N 47°36' W 122°24'1 2.6
2019-Aug-14 23:00N 47°37' W 122°24'1 2.4
2019-Aug-14 22:27N 47°38' W 122°26'1 3.0
2019-Aug-14 21:59N 47°39' W 122°27'4 7.6
2019-Aug-14 21:30N 47°43' W 122°26'4 7.3
2019-Aug-14 20:59N 47°47' W 122°25'5 7.3
2019-Aug-14 20:14N 47°52' W 122°23'  
Track history (hours):
 
Tides and Currents Weather Stations Pressure Air Temp Water Temp Dewpoint Dewpoint Depression Visibility Wind Speed Wind Dir Waves Ship Positions

Lady Washington (United States)

Ship's website: http://www.historicalseaport.org/LadyWashington.htm

Owner: GRAYS HARBOR HISTORICAL SEAPORT AUTHORIT, ABERDEEN, WA. More information available from US FCC via Universal Licensing System and Coast Guard Vessel Documentation Center.

Last reported at 2019-Aug-21 20:39 UTC. Time now 2019-Aug-22 08:55 UTC.
Position N 47°22' W 122°25'.

Length 34 m.

Type: Sailing vessel. MMSI: 366945360.

Date/timePositionNaut miles runAvg speedWind from/ knotsBaromVisibWave heightAir tempDewpointWater temp
2019-Aug-21 20:39N 47°22' W 122°25'1 5.4
2019-Aug-21 20:24N 47°22' W 122°24'5 5.0
2019-Aug-21 19:29N 47°27' W 122°25'3 5.4
2019-Aug-21 18:59N 47°29' W 122°26'3 5.2
2019-Aug-21 18:29N 47°32' W 122°27'5 5.9
2019-Aug-21 17:43N 47°35' W 122°32'  
2019-Aug-15 00:47N 47°34' W 122°31'5 4.0
2019-Aug-14 23:28N 47°36' W 122°24'1 2.6
2019-Aug-14 23:00N 47°37' W 122°24'1 2.4
2019-Aug-14 22:27N 47°38' W 122°26'1 3.0
2019-Aug-14 21:59N 47°39' W 122°27'4 7.6
2019-Aug-14 21:30N 47°43' W 122°26'4 7.3
2019-Aug-14 20:59N 47°47' W 122°25'5 7.3
2019-Aug-14 20:14N 47°52' W 122°23'  

Dump ship's entire track history